Time;durP1;ratioP1;P1;durP2;ratioP2;P2;SDS_P1;SDS_P2;PMS_P1;PMS_P2;Temp;Humidity;BMP_temperature;BMP_pressure;BME280_temperature;BME280_humidity;BME280_pressure;Samples;Min_cycle;Max_cycle;Signal;HPM_P1;HPM_P2
2022/04/25 00:01:16;;;;;;;19.45;9.30;;;7.50;99.90;;;;;;5046679;28;20033;-66
2022/04/25 00:03:42;;;;;;;18.27;9.77;;;7.40;99.90;;;;;;5074410;28;20059;-65
2022/04/25 00:06:08;;;;;;;17.65;9.32;;;7.40;99.90;;;;;;5075496;28;20544;-65
2022/04/25 00:08:34;;;;;;;15.50;8.70;;;7.40;99.90;;;;;;5063325;28;20120;-65
2022/04/25 00:11:00;;;;;;;20.70;9.98;;;7.30;99.90;;;;;;5048100;28;20075;-65
2022/04/25 00:13:26;;;;;;;19.60;8.90;;;7.30;99.90;;;;;;5059658;28;20040;-65
2022/04/25 00:15:55;;;;;;;14.05;9.30;;;7.40;99.90;;;;;;5074247;28;20101;-65
2022/04/25 00:18:21;;;;;;;19.17;9.02;;;7.40;99.90;;;;;;5075522;28;20049;-65
2022/04/25 00:20:48;;;;;;;16.90;9.52;;;7.50;99.90;;;;;;5067934;28;20040;-65
2022/04/25 00:23:14;;;;;;;18.38;10.45;;;7.50;99.90;;;;;;5056099;28;20052;-65
2022/04/25 00:25:40;;;;;;;18.10;10.40;;;7.60;99.90;;;;;;5073617;28;20052;-65
2022/04/25 00:28:07;;;;;;;20.05;10.32;;;7.70;99.90;;;;;;5072289;28;20413;-66
2022/04/25 00:30:33;;;;;;;16.98;9.63;;;7.70;99.90;;;;;;5039324;28;20045;-65
2022/04/25 00:33:00;;;;;;;16.58;9.68;;;7.80;99.90;;;;;;5070430;28;20107;-65
2022/04/25 00:35:26;;;;;;;16.85;10.05;;;7.90;99.90;;;;;;5062918;28;20128;-65
2022/04/25 00:37:53;;;;;;;24.50;11.60;;;7.90;99.90;;;;;;5053919;28;20037;-65
2022/04/25 00:40:20;;;;;;;18.85;10.82;;;8.00;99.90;;;;;;5065611;28;20500;-65
2022/04/25 00:42:47;;;;;;;18.73;11.02;;;8.00;99.90;;;;;;5065127;28;20036;-65
2022/04/25 00:45:14;;;;;;;20.75;10.50;;;8.00;99.90;;;;;;5061886;28;20047;-65
2022/04/25 00:47:41;;;;;;;17.55;11.52;;;8.00;99.90;;;;;;5053735;28;20045;-65
2022/04/25 00:50:08;;;;;;;18.48;10.07;;;7.90;99.90;;;;;;5063568;28;20044;-65
2022/04/25 00:52:34;;;;;;;18.90;9.88;;;7.80;99.90;;;;;;5059917;28;20397;-65
2022/04/25 00:55:03;;;;;;;18.20;10.70;;;7.70;99.90;;;;;;5051192;28;20048;-65
2022/04/25 00:57:30;;;;;;;16.13;10.43;;;7.70;99.90;;;;;;5073447;28;20044;-65
2022/04/25 00:59:57;;;;;;;20.05;12.05;;;7.50;99.90;;;;;;5056591;28;20035;-65
2022/04/25 01:02:27;;;;;;;16.73;10.77;;;7.50;99.90;;;;;;5063350;28;20032;-65
2022/04/25 01:04:57;;;;;;;16.75;11.10;;;7.40;99.90;;;;;;5066555;28;20509;-65
2022/04/25 01:07:22;;;;;;;15.55;10.55;;;7.40;99.90;;;;;;5073351;28;20634;-65
2022/04/25 01:09:48;;;;;;;22.15;12.70;;;7.30;99.90;;;;;;5037153;28;20048;-65
2022/04/25 01:12:14;;;;;;;16.45;10.85;;;7.20;99.90;;;;;;5046606;28;20040;-65
2022/04/25 01:14:40;;;;;;;19.92;11.65;;;7.20;99.90;;;;;;5068664;28;20159;-65
2022/04/25 01:17:07;;;;;;;18.85;12.15;;;7.20;99.90;;;;;;5053246;28;20036;-65
2022/04/25 01:19:33;;;;;;;19.38;11.05;;;7.20;99.90;;;;;;5063992;28;20055;-65
2022/04/25 01:22:02;;;;;;;21.75;12.50;;;7.10;99.90;;;;;;5046891;28;20056;-65
2022/04/25 01:27:18;;;;;;;18.05;12.57;;;7.10;99.90;;;;;;5072030;28;20063;-65
2022/04/25 01:29:51;;;;;;;21.35;12.73;;;7.10;99.90;;;;;;5071709;28;20056;-65
2022/04/25 01:32:17;;;;;;;25.50;12.93;;;7.10;99.90;;;;;;5064639;28;20104;-65
2022/04/25 01:34:44;;;;;;;18.98;11.95;;;7.10;99.90;;;;;;5060536;28;20028;-65
2022/04/25 01:37:20;;;;;;;21.23;12.50;;;7.20;99.90;;;;;;5072895;28;20381;-65
2022/04/25 01:39:51;;;;;;;22.13;13.43;;;7.20;99.90;;;;;;5060471;28;20049;-65
2022/04/25 01:42:17;;;;;;;18.98;12.82;;;7.30;99.90;;;;;;5062617;28;20487;-65
2022/04/25 01:44:44;;;;;;;20.08;13.10;;;7.40;99.90;;;;;;5061912;28;20040;-66
2022/04/25 01:47:11;;;;;;;20.30;14.20;;;7.40;99.90;;;;;;5073753;28;20123;-66
2022/04/25 01:49:38;;;;;;;23.52;13.40;;;7.50;99.90;;;;;;5058249;28;20049;-66
2022/04/25 01:52:29;;;;;;;22.85;14.77;;;7.50;99.90;;;;;;5055132;28;20069;-66
2022/04/25 01:54:57;;;;;;;22.17;14.13;;;7.60;99.90;;;;;;5065898;28;20037;-67
2022/04/25 01:57:23;;;;;;;23.17;14.98;;;7.60;99.90;;;;;;5052528;28;20037;-66
2022/04/25 01:59:49;;;;;;;22.60;16.42;;;7.60;99.90;;;;;;5065205;28;20036;-66
2022/04/25 02:02:15;;;;;;;26.25;15.52;;;7.60;99.90;;;;;;5059805;28;20033;-66
2022/04/25 02:04:42;;;;;;;25.48;15.55;;;7.60;99.90;;;;;;5070016;28;20083;-66
2022/04/25 02:07:09;;;;;;;23.50;14.85;;;7.60;99.90;;;;;;5052066;28;20079;-66
2022/04/25 02:09:37;;;;;;;23.70;14.90;;;7.60;99.90;;;;;;5058769;28;20044;-66
2022/04/25 02:12:04;;;;;;;24.48;14.93;;;7.60;99.90;;;;;;5064769;28;20049;-66
2022/04/25 02:14:30;;;;;;;23.15;14.57;;;7.60;99.90;;;;;;5059460;28;20115;-65
2022/04/25 02:16:58;;;;;;;21.92;15.38;;;7.60;99.90;;;;;;5066969;28;20162;-65
2022/04/25 02:19:25;;;;;;;22.42;14.63;;;7.60;99.90;;;;;;5071670;28;20045;-66
2022/04/25 02:21:52;;;;;;;24.10;16.65;;;7.60;99.90;;;;;;5034725;28;20798;-65
2022/04/25 02:24:18;;;;;;;27.05;15.20;;;7.60;99.90;;;;;;5060849;28;20040;-66
2022/04/25 02:26:44;;;;;;;24.30;15.57;;;7.60;99.90;;;;;;5063453;28;20053;-66
2022/04/25 02:29:10;;;;;;;22.48;14.23;;;7.60;99.90;;;;;;5055231;28;20048;-66
2022/04/25 02:31:35;;;;;;;21.30;14.88;;;7.60;99.90;;;;;;5058956;28;20046;-65
2022/04/25 02:34:01;;;;;;;30.20;16.08;;;7.60;99.90;;;;;;5065836;28;20036;-66
2022/04/25 02:36:27;;;;;;;24.98;15.52;;;7.50;99.90;;;;;;5057664;28;20489;-66
2022/04/25 02:38:53;;;;;;;23.92;16.20;;;7.60;99.90;;;;;;5051639;28;20382;-65
2022/04/25 02:41:18;;;;;;;29.08;15.73;;;7.50;99.90;;;;;;5055005;28;20040;-66
2022/04/25 02:43:45;;;;;;;26.92;14.93;;;7.50;99.90;;;;;;5060003;28;20041;-66
2022/04/25 02:46:13;;;;;;;23.50;14.05;;;7.50;99.90;;;;;;5065869;28;20072;-66
2022/04/25 02:48:41;;;;;;;23.35;15.38;;;7.50;99.90;;;;;;5072900;28;20041;-65
2022/04/25 02:51:08;;;;;;;22.58;14.73;;;7.40;99.90;;;;;;5056134;28;20381;-65
2022/04/25 02:53:35;;;;;;;24.42;15.25;;;7.40;99.90;;;;;;5061525;28;20052;-65
2022/04/25 02:56:02;;;;;;;24.75;14.95;;;7.40;99.90;;;;;;5058599;28;20106;-65
2022/04/25 02:58:29;;;;;;;22.70;14.52;;;7.30;99.90;;;;;;5051395;28;20482;-65
2022/04/25 03:00:56;;;;;;;20.77;14.00;;;7.30;99.90;;;;;;5067605;28;20037;-66
2022/04/25 03:03:24;;;;;;;25.08;14.30;;;7.20;99.90;;;;;;5060174;28;20048;-65
2022/04/25 03:05:52;;;;;;;23.17;14.02;;;7.10;99.90;;;;;;5061604;28;20036;-67
2022/04/25 03:08:20;;;;;;;23.23;13.88;;;7.00;99.90;;;;;;5071478;28;20133;-66
2022/04/25 03:10:47;;;;;;;25.25;14.93;;;7.00;99.90;;;;;;5062390;28;20123;-66
2022/04/25 03:13:15;;;;;;;24.20;14.15;;;6.90;99.90;;;;;;5065449;28;20071;-64
2022/04/25 03:15:42;;;;;;;20.92;13.85;;;6.90;99.90;;;;;;5063766;28;20044;-65
2022/04/25 03:18:12;;;;;;;21.30;13.88;;;6.80;99.90;;;;;;5056546;28;20081;-65
2022/04/25 03:20:48;;;;;;;24.65;14.35;;;6.80;99.90;;;;;;5071112;28;20043;-65
2022/04/25 03:23:18;;;;;;;23.23;13.25;;;6.70;99.90;;;;;;5055517;28;20044;-66
2022/04/25 03:25:45;;;;;;;24.33;15.02;;;6.70;99.90;;;;;;5061691;28;20485;-65
2022/04/25 03:28:11;;;;;;;21.13;13.85;;;6.60;99.90;;;;;;5056457;28;20489;-66
2022/04/25 03:30:37;;;;;;;20.38;13.27;;;6.60;99.90;;;;;;5053561;28;20040;-66
2022/04/25 03:33:03;;;;;;;22.92;14.50;;;6.60;99.90;;;;;;5071725;28;20040;-66
2022/04/25 03:35:30;;;;;;;23.83;13.95;;;6.60;99.90;;;;;;5065303;28;20499;-66
2022/04/25 03:37:57;;;;;;;19.73;13.10;;;6.50;99.90;;;;;;5056141;28;20045;-64
2022/04/25 03:40:23;;;;;;;19.98;13.38;;;6.50;99.90;;;;;;5067274;28;20043;-66
2022/04/25 03:42:50;;;;;;;20.00;12.82;;;6.50;99.90;;;;;;5063707;28;20112;-66
2022/04/25 03:45:18;;;;;;;27.02;15.20;;;6.50;99.90;;;;;;5054671;28;20041;-66
2022/04/25 03:47:45;;;;;;;24.63;12.73;;;6.40;99.90;;;;;;5054942;28;20045;-65
2022/04/25 03:50:14;;;;;;;20.60;13.35;;;6.40;99.90;;;;;;5069236;28;20082;-66
2022/04/25 03:52:43;;;;;;;23.02;13.05;;;6.30;99.90;;;;;;5063498;28;20046;-66
2022/04/25 03:57:56;;;;;;;23.27;13.38;;;6.30;99.90;;;;;;5074824;28;20404;-66
2022/04/25 04:00:23;;;;;;;25.38;15.23;;;6.30;99.90;;;;;;5044294;28;20051;-66
2022/04/25 04:02:50;;;;;;;18.35;12.77;;;6.30;99.90;;;;;;5060043;28;20104;-66
2022/04/25 04:05:15;;;;;;;19.50;13.13;;;6.30;99.90;;;;;;5058478;28;20068;-66
2022/04/25 04:07:42;;;;;;;22.42;14.73;;;6.20;99.90;;;;;;5075687;28;20072;-66
2022/04/25 04:10:08;;;;;;;21.30;14.32;;;6.20;99.90;;;;;;5067188;28;20037;-66
2022/04/25 04:12:34;;;;;;;19.92;13.93;;;6.30;99.90;;;;;;5060143;28;20112;-66
2022/04/25 04:15:07;;;;;;;24.38;16.13;;;6.30;99.90;;;;;;5072429;28;20037;-66
2022/04/25 04:17:34;;;;;;;26.27;15.13;;;6.30;99.90;;;;;;5055410;28;20477;-66
2022/04/25 04:20:02;;;;;;;24.33;15.60;;;6.30;99.90;;;;;;5059408;28;20039;-66
2022/04/25 04:22:31;;;;;;;25.38;15.32;;;6.40;99.90;;;;;;5064351;28;20037;-66
2022/04/25 04:25:05;;;;;;;20.67;14.25;;;6.40;99.90;;;;;;5063044;28;20056;-66
2022/04/25 04:27:33;;;;;;;21.98;14.85;;;6.40;99.90;;;;;;5069629;28;20045;-66
2022/04/25 04:30:00;;;;;;;26.23;14.73;;;6.40;99.90;;;;;;5073219;28;20511;-66
2022/04/25 04:32:29;;;;;;;26.58;14.93;;;6.50;99.90;;;;;;5056102;28;20029;-66
2022/04/25 04:34:56;;;;;;;27.15;15.60;;;6.50;99.90;;;;;;5066259;28;20032;-66
2022/04/25 04:37:23;;;;;;;23.00;15.40;;;6.60;99.90;;;;;;5063482;28;20064;-66
2022/04/25 04:39:49;;;;;;;23.15;14.05;;;6.60;99.90;;;;;;5053845;28;20041;-66
2022/04/25 04:42:14;;;;;;;24.63;15.55;;;6.70;99.90;;;;;;5067327;28;20052;-66
2022/04/25 04:44:42;;;;;;;24.55;14.75;;;6.70;99.90;;;;;;5064734;28;20086;-66
2022/04/25 04:47:08;;;;;;;23.13;15.73;;;6.70;99.90;;;;;;5062275;28;20033;-66
2022/04/25 04:49:34;;;;;;;25.50;16.20;;;6.80;99.90;;;;;;5073664;28;20546;-66
2022/04/25 04:52:00;;;;;;;19.65;13.77;;;6.80;99.90;;;;;;5058909;28;20472;-66
2022/04/25 04:54:26;;;;;;;28.50;16.63;;;6.90;99.90;;;;;;5064215;28;20132;-66
2022/04/25 04:56:52;;;;;;;20.80;14.35;;;6.90;99.90;;;;;;5062159;28;20484;-66
2022/04/25 04:59:18;;;;;;;21.92;14.57;;;7.00;99.90;;;;;;5073453;28;20116;-66
2022/04/25 05:01:44;;;;;;;21.15;13.98;;;7.10;99.90;;;;;;5062329;28;20112;-66
2022/04/25 05:04:10;;;;;;;22.60;16.25;;;7.20;99.90;;;;;;5054662;28;20045;-66
2022/04/25 05:06:36;;;;;;;22.98;14.13;;;7.20;99.90;;;;;;5059543;28;20132;-66
2022/04/25 05:09:02;;;;;;;19.60;12.90;;;7.30;99.90;;;;;;5068916;28;20120;-66
2022/04/25 05:11:30;;;;;;;22.33;14.55;;;7.30;99.90;;;;;;5056717;28;20072;-66
2022/04/25 05:13:56;;;;;;;23.08;14.73;;;7.40;99.90;;;;;;5056458;28;20127;-66
2022/04/25 05:16:22;;;;;;;20.88;14.98;;;7.40;99.90;;;;;;5069039;28;20445;-66
2022/04/25 05:18:48;;;;;;;19.83;13.68;;;7.50;99.90;;;;;;5047547;28;20033;-66
2022/04/25 05:21:14;;;;;;;23.00;14.68;;;7.60;99.90;;;;;;5062312;28;20416;-66
2022/04/25 05:23:41;;;;;;;23.70;15.25;;;7.60;99.90;;;;;;5048060;28;20462;-66
2022/04/25 05:26:08;;;;;;;20.77;14.82;;;7.70;99.90;;;;;;5067089;28;20044;-65
2022/04/25 05:28:34;;;;;;;22.90;15.15;;;7.80;99.90;;;;;;5063514;28;20056;-65
2022/04/25 05:31:00;;;;;;;25.48;16.50;;;7.90;99.90;;;;;;5060177;28;20049;-66
2022/04/25 05:33:26;;;;;;;23.73;15.52;;;7.90;99.90;;;;;;5073066;28;20051;-65
2022/04/25 05:35:52;;;;;;;22.40;15.68;;;8.00;99.90;;;;;;5059792;28;20548;-65
2022/04/25 05:38:18;;;;;;;21.60;15.75;;;8.10;99.90;;;;;;5058492;28;20048;-65
2022/04/25 05:40:44;;;;;;;20.55;15.20;;;8.10;99.90;;;;;;5038633;28;20068;-66
2022/04/25 05:43:11;;;;;;;23.83;16.80;;;8.20;99.90;;;;;;5055979;28;20066;-68
2022/04/25 05:45:37;;;;;;;18.98;13.95;;;8.20;99.90;;;;;;5065206;28;20037;-66
2022/04/25 05:51:58;;;;;;;22.88;15.10;;;8.30;99.90;;;;;;5062698;28;20041;-66
2022/04/25 05:53:35;;;;;;;22.25;13.88;;;8.30;99.90;;;;;;5070285;28;20052;-66
2022/04/25 05:56:01;;;;;;;18.42;14.18;;;8.30;99.90;;;;;;5041508;28;20041;-65
2022/04/25 05:58:27;;;;;;;20.05;15.57;;;8.30;99.90;;;;;;5063198;28;20041;-65
2022/04/25 06:00:53;;;;;;;20.20;15.68;;;8.30;99.90;;;;;;5059802;28;20043;-65
2022/04/25 06:03:18;;;;;;;15.80;12.32;;;8.30;99.90;;;;;;5073291;28;20046;-64
2022/04/25 06:05:45;;;;;;;18.55;13.18;;;8.30;99.90;;;;;;5062537;28;20029;-65
2022/04/25 06:08:11;;;;;;;19.05;14.20;;;8.20;99.90;;;;;;5062290;28;20097;-65
2022/04/25 06:10:36;;;;;;;17.38;11.98;;;8.20;99.90;;;;;;5056251;28;20039;-65
2022/04/25 06:13:02;;;;;;;18.98;13.23;;;8.20;99.90;;;;;;5073266;28;20037;-64
2022/04/25 06:15:29;;;;;;;18.27;11.85;;;8.20;99.90;;;;;;5045870;28;20041;-63
2022/04/25 06:17:56;;;;;;;17.98;11.70;;;8.20;99.90;;;;;;5064108;28;20120;-64
2022/04/25 06:20:22;;;;;;;19.00;11.13;;;8.30;99.90;;;;;;5058237;28;20037;-64
2022/04/25 06:22:59;;;;;;;21.08;11.80;;;8.30;99.90;;;;;;5069919;28;20051;-65
2022/04/25 06:25:29;;;;;;;15.93;11.68;;;8.40;99.90;;;;;;5060239;28;20539;-64
2022/04/25 06:27:57;;;;;;;17.35;10.15;;;8.50;99.90;;;;;;5040126;28;20048;-64
2022/04/25 06:30:26;;;;;;;14.43;10.88;;;8.50;99.90;;;;;;5069551;28;20044;-64
2022/04/25 06:32:52;;;;;;;18.98;11.43;;;8.50;99.90;;;;;;5051950;28;20440;-64
2022/04/25 06:35:20;;;;;;;14.57;11.00;;;8.50;99.90;;;;;;5041254;28;20116;-64
2022/04/25 06:37:46;;;;;;;15.45;10.65;;;8.50;99.90;;;;;;5064378;28;20488;-65
2022/04/25 06:40:12;;;;;;;16.27;9.55;;;8.40;99.90;;;;;;5054941;28;20053;-65
2022/04/25 06:42:38;;;;;;;12.13;10.10;;;8.40;99.90;;;;;;5071472;28;20044;-65
2022/04/25 06:45:05;;;;;;;15.75;10.38;;;8.40;99.90;;;;;;5049739;28;20047;-63
2022/04/25 06:47:31;;;;;;;18.42;10.82;;;8.40;99.90;;;;;;5048335;28;20036;-62
2022/04/25 06:49:57;;;;;;;16.17;11.35;;;8.30;99.90;;;;;;5055164;28;20457;-63
2022/04/25 06:52:23;;;;;;;14.77;10.68;;;8.30;99.90;;;;;;5067945;28;20131;-63
2022/04/25 06:54:50;;;;;;;17.60;10.60;;;8.30;99.90;;;;;;5067865;28;20115;-63
2022/04/25 06:57:16;;;;;;;14.75;11.05;;;8.30;99.90;;;;;;5051847;28;20497;-64
2022/04/25 06:59:43;;;;;;;18.17;11.85;;;8.20;99.90;;;;;;5060859;28;20083;-63
2022/04/25 07:02:10;;;;;;;16.10;11.63;;;8.20;99.90;;;;;;5061037;28;20040;-62
2022/04/25 07:04:37;;;;;;;17.30;10.73;;;8.20;99.90;;;;;;5071809;28;20083;-63
2022/04/25 07:07:03;;;;;;;20.08;11.68;;;8.30;99.90;;;;;;5058977;28;20106;-62
2022/04/25 07:09:29;;;;;;;14.25;10.63;;;8.40;99.90;;;;;;5059651;28;20040;-62
2022/04/25 07:11:55;;;;;;;17.30;10.65;;;8.50;99.90;;;;;;5060147;28;20037;-62
2022/04/25 07:14:21;;;;;;;15.50;10.50;;;8.50;99.90;;;;;;5058142;28;20405;-63
2022/04/25 07:16:48;;;;;;;15.30;10.93;;;8.50;99.90;;;;;;5060455;28;20060;-63
2022/04/25 07:19:18;;;;;;;16.60;11.15;;;8.60;99.90;;;;;;5058929;28;20035;-63
2022/04/25 07:29:57;;;;;;;14.50;11.55;;;8.70;99.90;;;;;;5061205;28;20389;-62
2022/04/25 07:32:23;;;;;;;16.02;9.43;;;8.80;99.90;;;;;;5061325;28;20052;-62
2022/04/25 07:34:49;;;;;;;15.98;11.13;;;8.90;99.90;;;;;;5071167;28;20037;-63
2022/04/25 07:37:16;;;;;;;13.68;10.68;;;8.90;99.90;;;;;;5055703;28;20045;-62
2022/04/25 07:39:46;;;;;;;12.30;9.63;;;8.90;99.90;;;;;;5062311;28;20178;-62
2022/04/25 07:42:12;;;;;;;12.70;9.75;;;9.00;99.90;;;;;;5057089;28;20108;-63
2022/04/25 07:44:38;;;;;;;15.52;9.23;;;9.00;99.90;;;;;;5071000;28;20049;-63
2022/04/25 07:47:05;;;;;;;15.05;9.75;;;9.00;99.90;;;;;;5061137;28;20033;-63
2022/04/25 07:49:33;;;;;;;14.77;9.80;;;8.90;99.90;;;;;;5057254;28;20037;-62
2022/04/25 07:51:59;;;;;;;12.07;9.88;;;8.90;99.90;;;;;;5053285;28;20108;-63
2022/04/25 07:54:26;;;;;;;13.13;9.82;;;8.80;99.90;;;;;;5071267;28;20118;-64
2022/04/25 07:56:52;;;;;;;14.80;9.05;;;8.80;99.90;;;;;;5067031;28;20058;-62
2022/04/25 07:59:19;;;;;;;11.95;9.35;;;8.70;99.90;;;;;;5059340;28;20033;-62
2022/04/25 08:01:45;;;;;;;23.02;10.48;;;8.70;99.90;;;;;;5058092;28;20138;-63
2022/04/25 08:04:11;;;;;;;15.88;9.73;;;8.70;99.90;;;;;;5072711;28;20097;-62
2022/04/25 08:06:38;;;;;;;14.20;9.68;;;8.60;99.90;;;;;;5055755;28;20539;-60
2022/04/25 08:09:05;;;;;;;18.70;10.55;;;8.60;99.90;;;;;;5057069;28;20202;-61
2022/04/25 08:11:31;;;;;;;17.85;11.27;;;8.70;99.90;;;;;;5063342;28;20055;-61
2022/04/25 08:19:17;;;;;;;15.80;10.70;;;8.70;99.90;;;;;;5054593;28;20044;-61
2022/04/25 08:21:44;;;;;;;14.32;10.77;;;8.70;99.90;;;;;;5064668;28;20112;-61
2022/04/25 08:24:13;;;;;;;19.80;11.43;;;8.70;99.90;;;;;;5063918;28;20041;-61
2022/04/25 08:26:39;;;;;;;18.88;11.73;;;8.70;99.90;;;;;;5055209;28;20053;-62
2022/04/25 08:29:37;;;;;;;17.52;11.27;;;8.70;99.90;;;;;;5067208;28;20044;-61
2022/04/25 08:32:03;;;;;;;20.00;13.13;;;8.70;99.90;;;;;;5066662;28;20552;-63
2022/04/25 08:34:29;;;;;;;18.98;11.80;;;8.80;99.90;;;;;;5060070;28;20115;-62
2022/04/25 08:36:54;;;;;;;22.73;12.20;;;8.80;99.90;;;;;;5053900;28;20524;-62
2022/04/25 08:39:20;;;;;;;18.75;12.82;;;8.70;99.90;;;;;;5071661;28;20036;-61
2022/04/25 08:41:48;;;;;;;16.02;12.23;;;8.70;99.90;;;;;;5045967;28;20040;-63
2022/04/25 08:44:18;;;;;;;16.75;12.15;;;8.80;99.90;;;;;;5068055;28;20044;-62
2022/04/25 08:46:52;;;;;;;22.27;13.02;;;8.80;99.90;;;;;;5055475;28;20125;-62
2022/04/25 08:49:18;;;;;;;16.67;12.38;;;8.80;99.90;;;;;;5059150;28;20041;-62
2022/04/25 08:51:46;;;;;;;19.08;11.07;;;8.80;99.90;;;;;;5064987;28;20127;-62
2022/04/25 08:54:13;;;;;;;20.08;12.90;;;8.80;99.90;;;;;;5064312;28;20453;-62
2022/04/25 08:56:41;;;;;;;17.67;12.80;;;8.80;99.90;;;;;;5054867;28;20548;-61
2022/04/25 08:59:08;;;;;;;19.35;12.35;;;8.70;99.90;;;;;;5064316;28;20033;-61
2022/04/25 09:01:35;;;;;;;22.80;13.02;;;8.70;99.90;;;;;;5063651;28;20076;-61
2022/04/25 09:04:02;;;;;;;16.98;11.43;;;8.70;99.90;;;;;;5064963;28;20033;-61
2022/04/25 09:06:28;;;;;;;15.60;11.50;;;8.80;99.90;;;;;;5073537;28;20039;-61
2022/04/25 09:08:54;;;;;;;18.35;12.60;;;8.70;99.90;;;;;;5044270;28;20109;-61
2022/04/25 09:14:05;;;;;;;17.90;12.73;;;8.80;99.90;;;;;;5067486;28;20477;-61
2022/04/25 09:16:31;;;;;;;18.42;11.90;;;8.70;99.90;;;;;;5051607;28;20465;-61
2022/04/25 09:19:03;;;;;;;20.27;11.90;;;8.70;99.90;;;;;;5056234;28;20041;-61
2022/04/25 09:21:45;;;;;;;16.55;12.95;;;8.80;99.90;;;;;;5056735;28;20047;-61
2022/04/25 09:24:34;;;;;;;17.13;13.02;;;8.80;99.90;;;;;;5072734;28;20142;-61
2022/04/25 09:27:18;;;;;;;18.30;12.80;;;8.90;99.90;;;;;;5070375;28;20043;-61
2022/04/25 09:29:48;;;;;;;20.95;12.10;;;8.90;99.90;;;;;;5068591;28;20056;-61
2022/04/25 09:32:17;;;;;;;21.15;12.52;;;9.00;99.90;;;;;;5062551;28;20044;-61
2022/04/25 09:35:05;;;;;;;21.88;12.35;;;9.00;99.90;;;;;;5064846;28;20052;-62
2022/04/25 09:37:48;;;;;;;18.10;11.98;;;9.10;99.90;;;;;;5067751;28;20041;-61
2022/04/25 09:40:19;;;;;;;19.73;12.77;;;9.10;99.90;;;;;;5070831;28;20560;-61
2022/04/25 09:42:46;;;;;;;16.90;12.15;;;9.10;99.90;;;;;;5061346;28;20523;-61
2022/04/25 09:45:13;;;;;;;19.08;12.25;;;9.10;99.90;;;;;;5063004;28;20104;-61
2022/04/25 09:47:39;;;;;;;17.85;12.07;;;9.10;99.90;;;;;;5073969;28;20106;-61
2022/04/25 09:50:13;;;;;;;19.15;13.00;;;9.00;99.90;;;;;;5072678;28;20047;-61
2022/04/25 09:53:02;;;;;;;19.35;12.60;;;9.00;99.90;;;;;;5054998;28;20060;-61
2022/04/25 09:55:30;;;;;;;16.40;12.25;;;9.00;99.90;;;;;;5066455;28;20488;-62
2022/04/25 09:57:56;;;;;;;17.13;13.15;;;9.00;99.90;;;;;;5071467;28;20516;-61
2022/04/25 10:00:39;;;;;;;20.58;14.55;;;9.00;99.90;;;;;;5061873;28;20385;-61
2022/04/25 10:03:06;;;;;;;24.33;15.68;;;9.00;99.90;;;;;;5062411;28;20036;-61
2022/04/25 10:05:44;;;;;;;19.17;13.40;;;9.00;99.90;;;;;;5059099;28;20041;-61
2022/04/25 10:08:12;;;;;;;21.02;13.57;;;9.00;99.90;;;;;;5073463;28;20048;-61
2022/04/25 10:10:59;;;;;;;21.35;14.00;;;9.10;99.90;;;;;;5066479;28;20052;-62
2022/04/25 10:13:26;;;;;;;19.08;13.00;;;9.20;99.90;;;;;;5064344;28;20079;-61
2022/04/25 10:15:55;;;;;;;18.05;12.65;;;9.20;99.90;;;;;;5054782;28;20440;-62
2022/04/25 10:18:21;;;;;;;17.25;11.50;;;9.30;99.90;;;;;;5073206;28;20042;-61
2022/04/25 10:20:47;;;;;;;15.95;9.80;;;9.30;99.90;;;;;;5072160;28;20025;-62
2022/04/25 10:23:14;;;;;;;16.08;10.63;;;9.40;99.90;;;;;;5054115;28;20396;-62
2022/04/25 10:25:47;;;;;;;13.90;9.43;;;9.30;99.90;;;;;;5048465;28;20064;-61
2022/04/25 10:28:50;;;;;;;13.77;10.68;;;9.30;99.90;;;;;;5054454;28;20493;-62
2022/04/25 10:31:31;;;;;;;15.82;8.95;;;9.30;99.90;;;;;;5058789;28;20400;-61
2022/04/25 10:33:59;;;;;;;12.80;7.97;;;9.30;99.90;;;;;;5062953;28;20124;-62
2022/04/25 10:36:41;;;;;;;11.00;8.38;;;9.30;99.90;;;;;;5067818;28;20036;-61
2022/04/25 10:39:24;;;;;;;12.02;8.43;;;9.20;99.90;;;;;;5052807;28;20044;-62
2022/04/25 10:44:37;;;;;;;13.10;8.35;;;9.10;99.90;;;;;;5065320;28;20041;-61
2022/04/25 10:47:06;;;;;;;20.40;9.20;;;9.10;99.90;;;;;;5055247;28;20037;-61
2022/04/25 10:49:46;;;;;;;14.52;8.93;;;9.10;99.90;;;;;;5073140;28;20068;-62
2022/04/25 10:52:30;;;;;;;;;;;9.10;99.90;;;;;;5061920;28;20051;-61
2022/04/25 10:55:23;;;;;;;10.73;7.82;;;9.10;99.90;;;;;;5055770;28;19959;-62
2022/04/25 10:58:10;;;;;;;11.48;7.55;;;9.00;99.90;;;;;;5053580;28;20477;-62
2022/04/25 11:00:45;;;;;;;11.80;8.85;;;9.00;99.90;;;;;;5072037;28;20078;-62
2022/04/25 11:03:20;;;;;;;12.90;6.18;;;9.00;99.90;;;;;;5062624;28;20116;-61
2022/04/25 11:06:00;;;;;;;18.80;8.85;;;9.00;99.90;;;;;;5061025;28;20389;-61
2022/04/25 11:08:31;;;;;;;15.25;8.48;;;8.90;99.90;;;;;;5062949;28;20051;-63
2022/04/25 11:10:56;;;;;;;;;;;8.80;99.90;;;;;;5053052;28;20470;-63
2022/04/25 11:13:28;;;;;;;14.25;9.13;;;8.80;99.90;;;;;;5065930;28;19927;-62
2022/04/25 11:16:17;;;;;;;15.73;9.60;;;8.70;99.90;;;;;;5060388;28;20381;-63
2022/04/25 11:18:43;;;;;;;15.02;9.98;;;8.70;99.90;;;;;;5071298;28;20049;-62
2022/04/25 11:21:29;;;;;;;18.23;10.13;;;8.70;99.90;;;;;;5071206;28;20568;-62
2022/04/25 11:23:54;;;;;;;16.05;11.18;;;8.70;99.90;;;;;;5056417;28;20044;-61
2022/04/25 11:26:26;;;;;;;16.75;10.27;;;8.80;99.90;;;;;;5062295;28;20049;-61
2022/04/25 11:28:55;;;;;;;14.30;10.60;;;8.80;99.90;;;;;;5064625;28;20048;-61
2022/04/25 11:31:23;;;;;;;18.65;10.75;;;8.80;99.90;;;;;;5052492;28;20128;-61
2022/04/25 11:33:54;;;;;;;17.88;11.20;;;8.80;99.90;;;;;;5073626;28;20090;-61
2022/04/25 11:36:22;;;;;;;16.10;10.82;;;8.80;99.90;;;;;;5055612;28;20115;-61
2022/04/25 11:41:39;;;;;;;17.33;12.07;;;8.90;99.90;;;;;;5075512;28;20108;-62
2022/04/25 11:44:06;;;;;;;20.70;12.73;;;9.00;99.90;;;;;;5069313;28;20481;-62
2022/04/25 11:46:33;;;;;;;20.00;13.85;;;9.00;99.90;;;;;;5066705;28;20036;-62
2022/04/25 11:48:59;;;;;;;18.48;12.23;;;9.00;99.90;;;;;;5069678;28;20045;-63
2022/04/25 11:51:29;;;;;;;15.60;10.75;;;9.10;99.90;;;;;;5071886;28;20041;-62
2022/04/25 11:54:05;;;;;;;15.50;10.88;;;9.20;99.90;;;;;;5069814;28;20036;-62
2022/04/25 11:56:33;;;;;;;15.60;11.40;;;9.30;99.90;;;;;;5065596;28;20037;-63
2022/04/25 11:59:05;;;;;;;15.00;10.95;;;9.40;99.90;;;;;;5070885;28;20465;-62
2022/04/25 12:01:32;;;;;;;14.07;9.88;;;9.60;99.90;;;;;;5060856;28;20500;-62
2022/04/25 12:04:20;;;;;;;12.57;9.45;;;9.70;99.90;;;;;;5072882;28;20047;-62
2022/04/25 12:06:55;;;;;;;16.00;10.30;;;9.80;99.90;;;;;;5071409;28;20503;-62
2022/04/25 12:17:39;;;;;;;12.48;9.18;;;10.60;99.90;;;;;;5071409;28;20044;-62
2022/04/25 12:20:09;;;;;;;13.98;9.18;;;10.80;99.90;;;;;;5072431;28;20040;-62
2022/04/25 12:22:36;;;;;;;10.27;6.78;;;11.00;99.90;;;;;;5069017;28;20052;-62
2022/04/25 12:25:17;;;;;;;15.63;9.70;;;11.30;99.90;;;;;;5075422;28;20052;-62
2022/04/25 12:28:15;;;;;;;11.77;8.20;;;11.50;99.90;;;;;;5071270;28;20055;-61
2022/04/25 12:31:05;;;;;;;10.40;8.23;;;11.70;99.90;;;;;;5069141;28;20048;-61
2022/04/25 12:33:37;;;;;;;10.07;8.27;;;12.20;99.90;;;;;;5073432;28;20399;-62
2022/04/25 12:36:19;;;;;;;13.75;9.38;;;12.50;99.90;;;;;;5074069;28;20040;-62
2022/04/25 12:38:56;;;;;;;14.35;9.68;;;12.70;99.90;;;;;;5066915;28;20037;-62
2022/04/25 12:41:32;;;;;;;15.63;9.43;;;12.90;99.90;;;;;;5046211;28;20040;-63
2022/04/25 12:44:26;;;;;;;;;;;;;;;;;;;;;
2022/04/25 12:47:12;;;;;;;14.07;10.93;;;13.10;99.90;;;;;;5074374;28;20033;-64
2022/04/25 12:49:44;;;;;;;12.43;8.68;;;13.30;99.90;;;;;;5071196;28;20048;-64
2022/04/25 12:52:17;;;;;;;11.40;8.75;;;13.40;99.90;;;;;;5062210;28;20039;-64
2022/04/25 12:54:50;;;;;;;10.85;8.57;;;13.40;99.90;;;;;;5051472;28;20128;-64
2022/04/25 12:57:26;;;;;;;9.95;8.77;;;13.50;99.90;;;;;;5054761;28;20119;-63
2022/04/25 12:59:53;;;;;;;9.45;7.97;;;13.60;99.90;;;;;;5072139;28;20052;-63
2022/04/25 13:02:32;;;;;;;12.23;7.72;;;13.60;99.90;;;;;;5049776;28;20044;-63
2022/04/25 13:05:04;;;;;;;12.07;8.82;;;13.60;99.90;;;;;;5058231;28;20392;-63
2022/04/25 13:07:40;;;;;;;11.77;8.45;;;13.60;99.90;;;;;;5068803;28;20037;-63
2022/04/25 13:10:18;;;;;;;11.02;8.55;;;13.60;99.90;;;;;;5071405;28;20049;-63
2022/04/25 13:12:56;;;;;;;18.65;10.52;;;13.70;99.90;;;;;;5047795;28;20060;-63
2022/04/25 13:15:28;;;;;;;11.93;9.45;;;13.60;99.90;;;;;;5060040;28;20043;-63
2022/04/25 13:18:06;;;;;;;14.95;9.32;;;13.50;99.90;;;;;;5073228;28;20047;-63
2022/04/25 13:20:39;;;;;;;12.02;8.48;;;13.60;99.90;;;;;;5059224;28;20044;-63
2022/04/25 13:23:07;;;;;;;10.75;8.38;;;13.70;99.90;;;;;;5061960;28;20037;-63
2022/04/25 13:25:34;;;;;;;10.40;9.02;;;13.70;99.90;;;;;;5067005;28;20485;-63
2022/04/25 13:28:02;;;;;;;14.50;9.15;;;13.80;99.90;;;;;;5074055;28;20524;-63
2022/04/25 13:30:31;;;;;;;11.35;8.50;;;13.80;99.90;;;;;;5072780;28;20167;-64